Time;durP1;ratioP1;P1;durP2;ratioP2;P2;SDS_P1;SDS_P2;PMS_P1;PMS_P2;Temp;Humidity;BMP_temperature;BMP_pressure;BME280_temperature;BME280_humidity;BME280_pressure;Samples;Min_cycle;Max_cycle;Signal;HPM_P1;HPM_P2
2023/12/11 00:01:08;;;;;;;16.60;16.10;;;21.20;57.20;;;;;;5002071;28;20569;-70
2023/12/11 00:03:36;;;;;;;16.17;15.67;;;21.20;57.10;;;;;;5001086;28;21053;-70
2023/12/11 00:06:03;;;;;;;16.07;15.67;;;21.20;57.20;;;;;;5008774;28;20963;-70
2023/12/11 00:08:30;;;;;;;16.10;15.70;;;21.20;57.20;;;;;;5000713;28;20546;-70
2023/12/11 00:10:57;;;;;;;16.10;15.60;;;21.20;57.20;;;;;;5001351;28;20497;-70
2023/12/11 00:13:25;;;;;;;16.90;16.40;;;21.20;57.30;;;;;;5004383;28;20536;-70
2023/12/11 00:15:52;;;;;;;16.60;16.10;;;21.20;57.30;;;;;;4988254;28;21002;-69
2023/12/11 00:18:19;;;;;;;16.03;15.63;;;21.20;57.30;;;;;;4993175;28;20897;-70
2023/12/11 00:20:46;;;;;;;16.10;15.60;;;21.20;57.40;;;;;;5000819;28;20869;-69
2023/12/11 00:23:13;;;;;;;16.40;15.90;;;21.20;57.40;;;;;;5003334;28;20553;-70
2023/12/11 00:25:46;;;;;;;16.70;16.20;;;21.20;57.40;;;;;;4991867;28;20455;-69
2023/12/11 00:28:13;;;;;;;15.80;15.30;;;21.20;57.40;;;;;;5002737;28;20980;-69
2023/12/11 00:30:42;;;;;;;16.33;15.83;;;21.10;57.40;;;;;;5004115;28;20450;-69
2023/12/11 00:33:08;;;;;;;16.10;15.70;;;21.10;57.50;;;;;;5002001;28;20520;-70
2023/12/11 00:35:35;;;;;;;17.10;16.60;;;21.20;57.60;;;;;;4995271;28;20440;-70
2023/12/11 00:38:02;;;;;;;16.30;15.90;;;21.10;57.50;;;;;;4999677;28;20549;-69
2023/12/11 00:40:29;;;;;;;16.50;16.00;;;21.10;57.50;;;;;;5003899;28;20566;-69
2023/12/11 00:42:56;;;;;;;16.53;15.83;;;21.10;57.60;;;;;;5002523;28;20473;-69
2023/12/11 00:45:23;;;;;;;16.50;16.00;;;21.10;57.50;;;;;;4997406;28;20506;-69
2023/12/11 00:47:52;;;;;;;17.20;16.70;;;21.10;57.60;;;;;;4996568;28;20443;-70
2023/12/11 00:50:19;;;;;;;17.40;17.00;;;21.10;57.50;;;;;;5003443;28;20852;-69
2023/12/11 00:52:46;;;;;;;17.20;16.80;;;21.10;57.50;;;;;;5003597;28;20527;-70
2023/12/11 00:55:13;;;;;;;17.30;16.70;;;21.10;57.50;;;;;;4996721;28;21003;-70
2023/12/11 00:57:40;;;;;;;17.23;16.73;;;21.10;57.60;;;;;;5000317;28;20482;-70
2023/12/11 01:00:08;;;;;;;20.30;19.60;;;21.10;57.60;;;;;;5001901;28;20513;-69
2023/12/11 01:02:35;;;;;;;16.80;16.30;;;21.10;57.60;;;;;;5003510;28;20485;-70
2023/12/11 01:05:04;;;;;;;16.50;15.70;;;21.10;57.60;;;;;;4998208;28;20446;-70
2023/12/11 01:07:31;;;;;;;16.53;16.03;;;21.10;57.70;;;;;;5000382;28;20473;-70
2023/12/11 01:09:58;;;;;;;16.60;16.00;;;21.10;57.70;;;;;;5000424;28;20869;-70
2023/12/11 01:12:25;;;;;;;19.33;18.53;;;21.00;57.60;;;;;;5003215;28;21043;-70
2023/12/11 01:14:52;;;;;;;16.90;16.40;;;21.10;57.70;;;;;;4999587;28;20788;-69
2023/12/11 01:17:18;;;;;;;16.30;15.90;;;21.00;57.70;;;;;;5000226;28;20541;-70
2023/12/11 01:19:45;;;;;;;16.23;15.83;;;21.00;57.70;;;;;;4999990;28;20525;-70
2023/12/11 01:22:14;;;;;;;17.20;16.43;;;21.00;57.70;;;;;;5002453;28;21026;-70
2023/12/11 01:24:41;;;;;;;16.80;16.13;;;21.00;57.60;;;;;;4999734;28;20860;-70
2023/12/11 01:27:08;;;;;;;16.93;16.43;;;21.00;57.60;;;;;;5001879;28;20857;-69
2023/12/11 01:29:35;;;;;;;17.13;16.23;;;21.00;57.60;;;;;;5000062;28;20800;-70
2023/12/11 01:32:02;;;;;;;17.00;16.20;;;21.00;57.60;;;;;;5000595;28;20881;-70
2023/12/11 01:34:29;;;;;;;16.73;16.23;;;21.00;57.60;;;;;;4999773;28;20516;-70
2023/12/11 01:36:56;;;;;;;16.60;16.10;;;21.00;57.70;;;;;;5003390;28;20450;-69
2023/12/11 01:39:24;;;;;;;18.00;17.37;;;21.00;57.70;;;;;;4992170;28;20857;-70
2023/12/11 01:41:51;;;;;;;16.93;16.33;;;21.00;57.60;;;;;;4999587;28;21032;-69
2023/12/11 01:44:18;;;;;;;16.97;16.40;;;20.90;57.50;;;;;;4999678;28;20512;-69
2023/12/11 01:46:46;;;;;;;16.97;16.27;;;21.00;57.70;;;;;;5003391;28;20508;-69
2023/12/11 01:49:14;;;;;;;17.00;16.50;;;20.90;57.60;;;;;;5000773;28;20536;-70
2023/12/11 01:51:41;;;;;;;15.67;15.27;;;20.90;57.60;;;;;;4999864;28;20474;-70
2023/12/11 01:54:08;;;;;;;16.93;16.30;;;20.90;57.60;;;;;;4999117;28;20452;-69
2023/12/11 01:56:37;;;;;;;16.57;16.07;;;20.90;57.60;;;;;;5006805;28;21042;-69
2023/12/11 01:59:04;;;;;;;17.73;17.23;;;20.90;57.50;;;;;;5005569;28;21625;-69
2023/12/11 02:01:31;;;;;;;16.67;16.23;;;20.90;57.60;;;;;;5003626;28;20470;-69
2023/12/11 02:03:58;;;;;;;16.10;15.70;;;20.90;57.60;;;;;;5003227;28;20525;-69
2023/12/11 02:06:25;;;;;;;16.60;16.00;;;20.90;57.60;;;;;;5006719;28;20849;-68
2023/12/11 02:08:52;;;;;;;16.80;16.30;;;20.90;57.60;;;;;;5006770;28;20442;-68
2023/12/11 02:11:20;;;;;;;16.90;16.20;;;20.90;57.60;;;;;;5001896;28;20788;-69
2023/12/11 02:13:48;;;;;;;16.80;16.20;;;20.90;57.70;;;;;;5003110;28;21030;-69
2023/12/11 02:16:16;;;;;;;17.20;16.70;;;20.90;57.70;;;;;;5005497;28;20519;-69
2023/12/11 02:18:43;;;;;;;18.00;17.20;;;20.80;57.70;;;;;;5006285;28;20477;-69
2023/12/11 02:21:11;;;;;;;16.70;16.10;;;20.80;57.70;;;;;;5001965;28;20533;-68
2023/12/11 02:23:46;;;;;;;16.10;15.60;;;20.90;57.80;;;;;;5003041;28;20447;-69
2023/12/11 02:26:16;;;;;;;16.87;16.37;;;20.80;57.80;;;;;;5004952;28;20450;-68
2023/12/11 02:28:44;;;;;;;15.90;15.50;;;20.80;57.70;;;;;;5005830;28;20465;-69
2023/12/11 02:31:11;;;;;;;16.60;16.10;;;20.90;57.90;;;;;;5001861;28;21003;-69
2023/12/11 02:33:38;;;;;;;17.53;16.93;;;20.80;58.40;;;;;;5002838;28;20510;-69
2023/12/11 02:36:06;;;;;;;16.80;15.90;;;20.80;57.80;;;;;;5003459;28;21177;-69
2023/12/11 02:38:33;;;;;;;17.20;16.60;;;20.80;57.80;;;;;;5006098;28;20477;-69
2023/12/11 02:41:00;;;;;;;24.67;23.90;;;20.80;57.70;;;;;;5003448;28;20437;-69
2023/12/11 02:43:28;;;;;;;22.50;21.90;;;20.80;57.80;;;;;;5002573;28;20791;-69
2023/12/11 02:45:55;;;;;;;17.77;17.27;;;20.80;57.70;;;;;;5002529;28;20842;-69
2023/12/11 02:48:22;;;;;;;17.00;16.50;;;20.80;57.80;;;;;;5005436;28;20457;-69
2023/12/11 02:50:49;;;;;;;17.07;16.47;;;20.80;57.80;;;;;;5004081;28;20446;-69
2023/12/11 02:53:16;;;;;;;16.77;16.10;;;20.80;57.80;;;;;;5003368;28;20973;-69
2023/12/11 02:55:43;;;;;;;18.83;18.23;;;20.80;57.80;;;;;;5002189;28;20493;-68
2023/12/11 02:58:10;;;;;;;16.40;15.70;;;20.80;57.90;;;;;;5003460;28;20489;-69
2023/12/11 03:00:38;;;;;;;16.50;15.90;;;20.80;57.90;;;;;;5004261;28;20861;-69
2023/12/11 03:03:05;;;;;;;15.50;15.10;;;20.80;58.00;;;;;;5004644;28;20478;-69
2023/12/11 03:05:32;;;;;;;17.27;16.57;;;20.80;57.90;;;;;;5001722;28;20446;-69
2023/12/11 03:07:59;;;;;;;16.23;15.73;;;20.80;57.90;;;;;;5002108;28;20501;-69
2023/12/11 03:10:26;;;;;;;16.20;15.73;;;20.80;57.90;;;;;;4994642;28;20455;-69
2023/12/11 03:12:53;;;;;;;16.93;16.20;;;20.80;57.90;;;;;;5001545;28;20526;-69
2023/12/11 03:15:20;;;;;;;16.90;16.40;;;20.70;57.80;;;;;;5004804;28;20516;-69
2023/12/11 03:17:49;;;;;;;16.70;16.20;;;20.70;57.90;;;;;;5005489;28;20556;-69
2023/12/11 03:20:16;;;;;;;16.97;16.37;;;20.70;57.90;;;;;;4996523;28;20925;-69
2023/12/11 03:22:43;;;;;;;16.80;16.30;;;20.70;57.90;;;;;;5001871;28;21016;-69
2023/12/11 03:25:10;;;;;;;16.67;16.17;;;20.70;58.00;;;;;;5003275;28;20455;-68
2023/12/11 03:27:37;;;;;;;23.93;23.13;;;20.70;57.90;;;;;;5005068;28;20446;-69
2023/12/11 03:30:05;;;;;;;17.10;16.50;;;20.70;57.90;;;;;;4998129;28;20454;-69
2023/12/11 03:32:32;;;;;;;16.80;16.20;;;20.70;58.00;;;;;;5001567;28;20459;-69
2023/12/11 03:35:00;;;;;;;17.10;16.50;;;20.70;57.90;;;;;;5001789;28;20505;-69
2023/12/11 03:37:27;;;;;;;16.57;16.10;;;20.70;58.00;;;;;;4993680;28;20447;-69
2023/12/11 03:39:54;;;;;;;17.00;16.40;;;20.70;57.90;;;;;;4996493;28;20457;-68
2023/12/11 03:42:21;;;;;;;16.97;16.47;;;20.70;57.90;;;;;;5001706;28;21169;-68
2023/12/11 03:44:48;;;;;;;16.80;16.10;;;20.70;57.90;;;;;;5001335;28;20443;-69
2023/12/11 03:47:15;;;;;;;17.70;17.10;;;20.70;57.90;;;;;;5003124;28;20455;-69
2023/12/11 03:49:42;;;;;;;16.40;15.80;;;20.70;58.00;;;;;;4998351;28;20449;-69
2023/12/11 03:52:10;;;;;;;17.33;16.73;;;20.70;58.00;;;;;;5003516;28;20537;-69
2023/12/11 03:54:37;;;;;;;17.30;16.80;;;20.60;57.90;;;;;;5001266;28;20443;-69
2023/12/11 03:57:05;;;;;;;16.90;16.40;;;20.70;58.00;;;;;;5001207;28;20526;-69
2023/12/11 03:59:32;;;;;;;17.77;16.87;;;20.60;58.10;;;;;;4998444;28;20470;-69
2023/12/11 04:01:59;;;;;;;17.50;16.80;;;20.60;58.20;;;;;;5004361;28;20822;-69
2023/12/11 04:04:26;;;;;;;17.17;16.67;;;20.70;58.20;;;;;;5001278;28;20529;-69
2023/12/11 04:06:53;;;;;;;17.10;16.60;;;20.60;58.10;;;;;;4999468;28;20543;-69
2023/12/11 04:09:21;;;;;;;18.03;17.13;;;20.70;58.20;;;;;;5002749;28;20447;-69
2023/12/11 04:11:48;;;;;;;16.93;16.43;;;20.70;58.20;;;;;;5004008;28;20466;-69
2023/12/11 04:14:15;;;;;;;17.50;17.00;;;20.60;58.10;;;;;;5002330;28;20508;-69
2023/12/11 04:16:42;;;;;;;17.87;17.30;;;20.60;58.10;;;;;;4990535;28;20485;-69
2023/12/11 04:19:11;;;;;;;19.03;18.43;;;20.60;58.10;;;;;;5001837;28;20482;-69
2023/12/11 04:21:37;;;;;;;17.73;17.03;;;20.60;58.20;;;;;;5000833;28;20459;-69
2023/12/11 04:24:05;;;;;;;17.90;17.40;;;20.60;58.20;;;;;;5000918;28;20497;-69
2023/12/11 04:26:33;;;;;;;17.50;16.90;;;20.70;58.30;;;;;;4996365;28;20619;-69
2023/12/11 04:29:00;;;;;;;17.40;16.80;;;20.60;58.20;;;;;;5004279;28;20449;-69
2023/12/11 04:31:27;;;;;;;17.90;17.40;;;20.60;58.20;;;;;;5000519;28;20513;-69
2023/12/11 04:33:54;;;;;;;17.90;17.40;;;20.60;58.30;;;;;;5000692;28;20513;-69
2023/12/11 04:36:21;;;;;;;19.47;18.77;;;20.60;58.40;;;;;;5002450;28;20938;-69
2023/12/11 04:38:48;;;;;;;18.37;17.60;;;20.60;58.40;;;;;;5004107;28;20482;-69
2023/12/11 04:41:15;;;;;;;18.67;17.77;;;20.60;58.50;;;;;;5001861;28;20438;-69
2023/12/11 04:43:44;;;;;;;18.57;17.97;;;20.60;58.50;;;;;;5000067;28;20439;-69
2023/12/11 04:46:11;;;;;;;19.13;18.53;;;20.60;58.50;;;;;;5000742;28;20461;-69
2023/12/11 04:48:38;;;;;;;18.30;17.70;;;20.60;58.60;;;;;;5003686;28;20434;-69
2023/12/11 04:51:05;;;;;;;18.23;17.50;;;20.60;58.60;;;;;;5003331;28;20450;-69
2023/12/11 04:53:32;;;;;;;17.87;17.27;;;20.60;58.70;;;;;;5000311;28;20454;-69
2023/12/11 04:55:59;;;;;;;18.43;17.77;;;20.60;58.70;;;;;;4999862;28;20455;-69
2023/12/11 04:58:27;;;;;;;18.30;17.40;;;20.60;58.60;;;;;;5002684;28;20532;-68
2023/12/11 05:00:55;;;;;;;18.50;18.00;;;20.60;58.70;;;;;;5003599;28;20876;-69
2023/12/11 05:03:22;;;;;;;19.30;18.60;;;20.60;58.70;;;;;;5000881;28;20478;-69
2023/12/11 05:05:49;;;;;;;19.10;18.60;;;20.60;58.80;;;;;;4995150;28;20452;-69
2023/12/11 05:08:16;;;;;;;20.57;19.87;;;20.60;58.70;;;;;;5000413;28;20505;-69
2023/12/11 05:10:43;;;;;;;21.20;20.60;;;20.60;58.70;;;;;;5003745;28;20458;-69
2023/12/11 05:13:10;;;;;;;21.23;20.63;;;20.60;58.70;;;;;;5002254;28;20469;-69
2023/12/11 05:15:37;;;;;;;21.90;21.10;;;20.60;59.20;;;;;;4999785;28;20795;-69
2023/12/11 05:18:06;;;;;;;22.20;21.40;;;20.60;58.70;;;;;;5000207;28;20455;-69
2023/12/11 05:20:33;;;;;;;20.00;19.40;;;20.60;58.60;;;;;;4992660;28;20466;-69
2023/12/11 05:23:00;;;;;;;22.63;21.90;;;20.60;58.50;;;;;;5000253;28;20470;-69
2023/12/11 05:25:27;;;;;;;22.87;21.97;;;20.60;58.60;;;;;;5003374;28;20443;-69
2023/12/11 05:27:54;;;;;;;21.83;21.13;;;20.60;58.50;;;;;;5000291;28;20451;-69
2023/12/11 05:30:20;;;;;;;21.03;20.30;;;20.60;58.50;;;;;;5005837;28;20505;-69
2023/12/11 05:32:48;;;;;;;22.30;21.60;;;20.60;58.50;;;;;;5007159;28;20466;-69
2023/12/11 05:35:16;;;;;;;21.20;20.50;;;20.60;58.60;;;;;;5005503;28;20442;-69
2023/12/11 05:37:43;;;;;;;20.37;19.77;;;20.60;58.50;;;;;;5003905;28;20458;-69
2023/12/11 05:40:11;;;;;;;20.13;19.53;;;20.60;58.50;;;;;;5003968;28;20482;-69
2023/12/11 05:42:38;;;;;;;20.10;19.30;;;20.60;58.50;;;;;;5006642;28;20532;-69
2023/12/11 05:45:06;;;;;;;19.93;19.33;;;20.60;58.40;;;;;;4996803;28;20448;-69
2023/12/11 05:47:33;;;;;;;20.80;20.20;;;20.60;58.50;;;;;;5007003;28;20499;-69
2023/12/11 05:50:00;;;;;;;23.10;22.40;;;20.60;58.50;;;;;;5006996;28;20529;-69
2023/12/11 05:52:28;;;;;;;22.33;21.63;;;20.60;58.50;;;;;;5003646;28;20978;-69
2023/12/11 05:54:55;;;;;;;21.90;21.03;;;20.60;58.40;;;;;;5006079;28;20441;-69
2023/12/11 05:57:22;;;;;;;21.50;20.90;;;20.60;58.40;;;;;;5004565;28;20504;-69
2023/12/11 05:59:49;;;;;;;22.67;21.97;;;20.60;58.30;;;;;;5003273;28;20483;-69
2023/12/11 06:02:16;;;;;;;21.43;20.63;;;20.60;58.30;;;;;;5004436;28;20470;-69
2023/12/11 06:04:43;;;;;;;22.67;21.97;;;20.60;58.40;;;;;;5006258;28;20505;-69
2023/12/11 06:07:10;;;;;;;21.27;20.57;;;20.70;58.50;;;;;;5006034;28;20933;-69
2023/12/11 06:09:38;;;;;;;21.80;21.10;;;20.60;58.40;;;;;;5003110;28;20942;-69
2023/12/11 06:12:06;;;;;;;19.83;19.23;;;20.60;58.30;;;;;;5002933;28;20513;-69
2023/12/11 06:14:33;;;;;;;20.33;19.73;;;20.60;58.30;;;;;;4995118;28;20451;-69
2023/12/11 06:17:00;;;;;;;19.67;18.93;;;20.60;58.40;;;;;;5003178;28;20456;-69
2023/12/11 06:19:27;;;;;;;20.03;19.40;;;20.60;58.50;;;;;;5005634;28;20905;-69
2023/12/11 06:21:54;;;;;;;20.40;19.50;;;20.60;58.50;;;;;;5006546;28;20540;-69
2023/12/11 06:24:21;;;;;;;19.20;18.60;;;20.60;58.40;;;;;;5004079;28;20454;-69
2023/12/11 06:26:50;;;;;;;20.60;19.80;;;20.60;58.40;;;;;;5002842;28;20454;-69
2023/12/11 06:29:17;;;;;;;20.80;20.00;;;20.60;58.30;;;;;;5004125;28;20450;-69
2023/12/11 06:31:44;;;;;;;19.23;18.57;;;20.60;58.30;;;;;;5005809;28;20525;-69
2023/12/11 06:34:11;;;;;;;20.40;19.80;;;20.60;58.30;;;;;;5005773;28;20450;-69
2023/12/11 06:36:38;;;;;;;20.67;19.87;;;20.60;58.30;;;;;;5002879;28;20447;-69
2023/12/11 06:39:05;;;;;;;18.50;17.90;;;20.60;58.30;;;;;;5002422;28;20857;-69
2023/12/11 06:41:32;;;;;;;18.90;18.30;;;20.60;58.40;;;;;;5001117;28;20875;-68
2023/12/11 06:44:00;;;;;;;20.50;19.90;;;20.70;58.40;;;;;;5002565;28;20517;-69
2023/12/11 06:46:29;;;;;;;17.90;17.40;;;20.60;58.40;;;;;;5010649;28;20446;-69
2023/12/11 06:48:56;;;;;;;20.43;19.83;;;20.60;58.50;;;;;;5002653;28;20440;-69
2023/12/11 06:51:24;;;;;;;19.30;18.70;;;20.60;58.70;;;;;;5003787;28;20458;-69
2023/12/11 06:53:58;;;;;;;18.30;17.77;;;20.60;58.70;;;;;;5005894;28;20442;-69
2023/12/11 06:56:25;;;;;;;19.33;18.83;;;20.60;58.80;;;;;;5003494;28;20812;-68
2023/12/11 06:58:52;;;;;;;19.07;18.57;;;20.60;58.70;;;;;;5008019;28;20544;-68
2023/12/11 07:01:20;;;;;;;19.00;18.43;;;20.60;58.80;;;;;;5000928;28;20446;-68
2023/12/11 07:03:48;;;;;;;19.50;18.80;;;20.60;58.70;;;;;;5005629;28;20497;-69
2023/12/11 07:06:17;;;;;;;20.00;19.40;;;20.60;58.80;;;;;;5004569;28;20533;-68
2023/12/11 07:08:44;;;;;;;19.73;19.13;;;20.60;58.70;;;;;;5002146;28;20446;-69
2023/12/11 07:11:11;;;;;;;20.73;20.07;;;20.60;58.80;;;;;;5005633;28;20454;-68
2023/12/11 07:13:38;;;;;;;20.10;19.50;;;20.60;59.00;;;;;;5002056;28;20509;-69
2023/12/11 07:16:05;;;;;;;20.17;19.47;;;20.60;59.00;;;;;;5001951;28;20938;-68
2023/12/11 07:18:34;;;;;;;19.47;18.87;;;20.60;59.00;;;;;;5004990;28;20502;-69
2023/12/11 07:21:02;;;;;;;20.10;19.50;;;20.60;59.00;;;;;;5004715;28;20530;-69
2023/12/11 07:23:29;;;;;;;20.77;20.13;;;20.60;59.10;;;;;;5002478;28;20533;-68
2023/12/11 07:25:56;;;;;;;21.23;20.47;;;20.60;59.00;;;;;;5001636;28;20514;-68
2023/12/11 07:28:23;;;;;;;20.20;19.60;;;20.60;58.90;;;;;;5003059;28;20451;-68
2023/12/11 07:30:50;;;;;;;20.60;19.83;;;20.60;58.90;;;;;;5004721;28;20438;-69
2023/12/11 07:33:17;;;;;;;21.80;20.93;;;20.60;58.90;;;;;;5003931;28;20470;-68
2023/12/11 07:35:45;;;;;;;19.97;19.27;;;20.60;58.80;;;;;;5001675;28;20962;-69
2023/12/11 07:38:12;;;;;;;19.10;18.50;;;20.60;58.80;;;;;;5001265;28;20502;-68
2023/12/11 07:40:39;;;;;;;21.20;20.50;;;20.60;58.80;;;;;;5004958;28;20474;-69
2023/12/11 07:43:07;;;;;;;19.10;18.50;;;20.60;58.80;;;;;;4999810;28;20523;-68
2023/12/11 07:45:35;;;;;;;20.00;19.30;;;20.60;59.00;;;;;;5004363;28;20453;-69
2023/12/11 07:48:02;;;;;;;18.47;17.67;;;20.60;58.90;;;;;;5004812;28;20508;-69
2023/12/11 07:50:29;;;;;;;19.23;18.73;;;20.60;58.80;;;;;;5001357;28;20504;-69
2023/12/11 07:52:58;;;;;;;20.27;19.57;;;20.60;58.90;;;;;;5000995;28;20463;-69
2023/12/11 07:55:25;;;;;;;21.07;20.43;;;20.60;58.80;;;;;;5002996;28;20832;-69
2023/12/11 07:57:52;;;;;;;21.63;21.03;;;20.60;58.70;;;;;;5004470;28;20449;-68
2023/12/11 08:00:20;;;;;;;22.50;21.67;;;20.60;58.80;;;;;;5003052;28;20552;-69
2023/12/11 08:02:47;;;;;;;19.10;18.40;;;20.60;58.80;;;;;;5011545;23;20502;-65
2023/12/11 08:05:14;;;;;;;19.43;18.83;;;20.60;58.80;;;;;;4992891;28;20438;-66
2023/12/11 08:07:40;;;;;;;20.73;20.03;;;20.60;58.70;;;;;;4993069;28;20439;-66
2023/12/11 08:10:10;;;;;;;19.90;19.10;;;20.60;58.60;;;;;;4992727;28;20435;-66
2023/12/11 08:12:37;;;;;;;20.00;19.10;;;20.60;58.60;;;;;;4988203;28;20968;-66
2023/12/11 08:15:04;;;;;;;20.17;19.57;;;20.60;58.70;;;;;;4993065;28;20447;-65
2023/12/11 08:17:31;;;;;;;20.33;19.73;;;20.60;58.70;;;;;;4993013;28;21009;-66
2023/12/11 08:19:58;;;;;;;20.93;20.13;;;20.60;58.70;;;;;;4992289;28;20485;-65
2023/12/11 08:22:25;;;;;;;20.03;19.43;;;20.50;58.60;;;;;;4992174;28;20467;-65
2023/12/11 08:24:52;;;;;;;21.90;21.20;;;20.50;58.50;;;;;;4992859;28;20454;-65
2023/12/11 08:27:21;;;;;;;21.43;20.70;;;20.60;58.80;;;;;;4992788;28;20451;-66
2023/12/11 08:29:48;;;;;;;22.30;21.60;;;20.50;58.60;;;;;;4985354;28;20502;-66
2023/12/11 08:32:14;;;;;;;21.23;20.60;;;20.50;58.70;;;;;;4992736;28;20470;-65
2023/12/11 08:34:41;;;;;;;21.37;20.77;;;20.50;58.80;;;;;;4992774;28;20443;-65
2023/12/11 08:37:09;;;;;;;20.40;19.80;;;20.50;58.70;;;;;;4992718;28;20446;-66
2023/12/11 08:39:36;;;;;;;22.20;21.23;;;20.50;58.70;;;;;;4991680;28;20482;-66
2023/12/11 08:42:03;;;;;;;20.53;19.83;;;20.60;58.80;;;;;;4992527;28;20470;-66
2023/12/11 08:44:32;;;;;;;20.40;19.90;;;20.60;58.90;;;;;;4992386;28;20851;-66
2023/12/11 08:46:59;;;;;;;21.20;20.60;;;20.60;58.90;;;;;;4991364;28;20443;-65
2023/12/11 08:49:25;;;;;;;20.30;19.70;;;20.50;59.00;;;;;;4992194;28;20497;-65
2023/12/11 08:51:52;;;;;;;18.60;18.10;;;20.50;59.00;;;;;;4992100;28;20529;-66
2023/12/11 08:54:19;;;;;;;20.80;20.10;;;20.50;58.90;;;;;;4992091;28;20454;-67
2023/12/11 08:56:46;;;;;;;20.10;19.40;;;20.50;58.90;;;;;;4991718;28;20447;-66
2023/12/11 08:59:13;;;;;;;20.57;19.77;;;20.50;59.00;;;;;;4992148;28;20486;-65
2023/12/11 09:01:42;;;;;;;19.83;19.03;;;20.50;58.90;;;;;;4988190;28;20443;-66
2023/12/11 09:04:09;;;;;;;20.10;19.40;;;20.50;58.90;;;;;;4991917;28;20447;-66
2023/12/11 09:06:36;;;;;;;18.80;18.23;;;20.50;58.90;;;;;;4992031;28;20443;-66
2023/12/11 09:09:03;;;;;;;18.37;17.87;;;20.50;58.90;;;;;;4992132;28;20498;-65
2023/12/11 09:11:30;;;;;;;19.90;19.30;;;20.50;58.90;;;;;;4991294;28;20846;-65
2023/12/11 09:13:57;;;;;;;21.43;20.83;;;20.50;59.00;;;;;;4992245;28;20513;-66
2023/12/11 09:16:24;;;;;;;21.77;21.07;;;20.50;59.00;;;;;;4992480;28;20868;-65
2023/12/11 09:18:52;;;;;;;22.03;21.33;;;20.50;59.20;;;;;;4992555;28;20447;-66
2023/12/11 09:21:22;;;;;;;21.47;20.73;;;20.50;59.40;;;;;;4989365;28;20533;-66
2023/12/11 09:23:49;;;;;;;22.10;21.40;;;20.50;59.30;;;;;;4992114;28;20485;-65
2023/12/11 09:26:16;;;;;;;23.50;22.73;;;20.50;59.40;;;;;;4992403;28;20525;-65
2023/12/11 09:28:43;;;;;;;22.10;21.40;;;20.50;59.40;;;;;;4992523;28;20497;-65
2023/12/11 09:31:10;;;;;;;21.10;20.50;;;20.50;59.40;;;;;;4992108;28;20443;-65
2023/12/11 09:33:40;;;;;;;21.40;20.70;;;20.50;59.70;;;;;;4992074;28;20863;-66
2023/12/11 09:36:09;;;;;;;20.37;19.57;;;20.50;59.50;;;;;;4992547;28;20447;-65
2023/12/11 09:38:36;;;;;;;21.30;20.50;;;20.50;59.40;;;;;;4992309;28;20454;-66
2023/12/11 09:41:03;;;;;;;21.87;21.27;;;20.50;59.90;;;;;;4989896;28;20478;-65
2023/12/11 09:43:30;;;;;;;20.47;19.80;;;20.60;59.50;;;;;;4992097;28;20463;-65
2023/12/11 09:45:59;;;;;;;20.20;19.50;;;20.60;59.50;;;;;;4992077;28;20934;-65
2023/12/11 09:48:28;;;;;;;21.27;20.37;;;20.60;59.40;;;;;;4991450;28;20520;-65
2023/12/11 09:50:55;;;;;;;21.03;20.43;;;20.50;59.30;;;;;;4992010;28;20512;-66
2023/12/11 09:53:23;;;;;;;20.50;19.90;;;20.50;59.40;;;;;;4991725;28;20467;-66
2023/12/11 09:55:51;;;;;;;21.00;20.17;;;20.50;60.10;;;;;;4992157;28;20443;-66
2023/12/11 09:58:18;;;;;;;22.37;21.67;;;20.50;59.50;;;;;;4991991;28;20450;-65
2023/12/11 10:00:46;;;;;;;22.10;21.30;;;20.50;59.50;;;;;;4991741;28;20479;-65
2023/12/11 10:03:13;;;;;;;22.10;21.13;;;20.50;59.50;;;;;;4991996;28;20470;-65
2023/12/11 10:05:40;;;;;;;20.10;19.50;;;20.50;59.50;;;;;;4991939;28;20512;-65
2023/12/11 10:08:07;;;;;;;18.73;18.13;;;20.50;59.40;;;;;;4991658;28;20447;-65
2023/12/11 10:10:38;;;;;;;19.63;19.07;;;20.50;59.50;;;;;;4984646;28;20489;-66
2023/12/11 10:13:05;;;;;;;20.00;19.40;;;20.50;59.40;;;;;;4991882;28;20970;-65
2023/12/11 10:15:32;;;;;;;21.73;20.80;;;20.50;59.40;;;;;;4993474;28;20454;-66
2023/12/11 10:18:05;;;;;;;22.30;21.37;;;20.60;59.40;;;;;;4994927;28;20549;-66
2023/12/11 10:20:32;;;;;;;22.07;21.30;;;20.50;59.40;;;;;;4995531;28;20486;-65
2023/12/11 10:22:59;;;;;;;22.40;21.70;;;20.60;59.50;;;;;;4995276;28;20509;-65
2023/12/11 10:25:27;;;;;;;20.47;19.67;;;20.60;59.50;;;;;;4995067;28;20450;-66
2023/12/11 10:28:07;;;;;;;21.83;21.17;;;20.50;59.40;;;;;;4994873;28;20934;-65
2023/12/11 10:30:42;;;;;;;21.37;20.50;;;20.60;59.50;;;;;;4995464;28;20506;-66
2023/12/11 10:33:09;;;;;;;20.30;19.40;;;20.50;59.50;;;;;;4995063;28;20554;-66
2023/12/11 10:35:36;;;;;;;20.93;19.80;;;20.50;59.50;;;;;;4994544;28;20526;-66
2023/12/11 10:38:03;;;;;;;21.40;20.53;;;20.50;59.60;;;;;;4990783;28;20521;-65
2023/12/11 10:40:41;;;;;;;20.57;19.87;;;20.50;59.70;;;;;;4994722;28;20482;-65
2023/12/11 10:43:09;;;;;;;20.47;19.77;;;20.50;59.50;;;;;;4994456;28;20469;-66
2023/12/11 10:45:36;;;;;;;20.53;19.93;;;20.50;59.60;;;;;;4990281;28;20948;-66
2023/12/11 10:48:04;;;;;;;19.93;19.23;;;20.50;59.60;;;;;;4992136;28;20498;-65
2023/12/11 10:50:31;;;;;;;20.77;20.10;;;20.50;59.60;;;;;;4992704;28;20439;-66
2023/12/11 10:53:01;;;;;;;19.53;18.83;;;20.50;59.60;;;;;;4994313;28;20490;-65
2023/12/11 10:55:29;;;;;;;21.10;20.40;;;20.50;59.50;;;;;;4993722;28;20463;-65
2023/12/11 10:57:57;;;;;;;20.13;19.53;;;20.50;59.50;;;;;;4994613;28;20534;-65
2023/12/11 11:00:27;;;;;;;20.00;19.40;;;20.50;59.60;;;;;;4994160;28;20558;-66
2023/12/11 11:02:57;;;;;;;19.70;19.00;;;20.60;59.60;;;;;;4994080;28;20550;-65
2023/12/11 11:05:26;;;;;;;19.13;18.63;;;20.50;59.50;;;;;;4993396;28;20439;-66
2023/12/11 11:08:01;;;;;;;18.23;17.70;;;20.50;59.50;;;;;;4994177;28;20478;-66
2023/12/11 11:10:34;;;;;;;19.70;19.10;;;20.50;59.50;;;;;;4994098;28;20477;-66
2023/12/11 11:13:08;;;;;;;20.63;19.93;;;20.50;59.60;;;;;;4993996;28;20491;-65
2023/12/11 11:15:36;;;;;;;20.60;19.90;;;20.50;59.60;;;;;;4993335;28;20486;-65
2023/12/11 11:18:05;;;;;;;21.07;20.20;;;20.50;59.70;;;;;;4993871;28;20481;-67
2023/12/11 11:20:32;;;;;;;21.60;20.77;;;20.50;59.70;;;;;;4993826;28;20890;-65
2023/12/11 11:23:22;;;;;;;19.03;18.37;;;20.60;59.80;;;;;;4993755;28;20525;-68
2023/12/11 11:25:52;;;;;;;20.93;20.07;;;20.60;59.70;;;;;;4985508;28;20479;-65
2023/12/11 11:28:41;;;;;;;20.10;19.30;;;20.60;59.90;;;;;;4993116;28;20854;-65
2023/12/11 11:31:10;;;;;;;20.97;20.20;;;20.70;60.40;;;;;;4988326;28;20855;-66
2023/12/11 11:33:46;;;;;;;20.40;19.70;;;20.80;61.20;;;;;;4993562;28;20550;-67
2023/12/11 11:36:15;;;;;;;19.40;18.70;;;20.80;61.20;;;;;;4993181;28;20449;-66
2023/12/11 11:39:00;;;;;;;20.47;19.63;;;20.90;61.50;;;;;;4993443;28;20447;-65
2023/12/11 11:41:29;;;;;;;20.10;19.40;;;21.00;60.10;;;;;;4993240;28;20514;-65
2023/12/11 11:44:00;;;;;;;21.83;20.90;;;21.10;59.40;;;;;;4993636;28;20505;-67
2023/12/11 11:46:29;;;;;;;22.00;21.20;;;21.20;60.70;;;;;;4992664;28;20953;-66
2023/12/11 11:48:56;;;;;;;20.20;19.50;;;21.20;59.10;;;;;;4993332;28;20475;-65
2023/12/11 11:51:23;;;;;;;20.70;19.90;;;21.30;59.20;;;;;;4993122;28;20443;-65
2023/12/11 11:54:00;;;;;;;19.70;19.00;;;21.40;58.90;;;;;;4992328;28;20501;-69
2023/12/11 11:56:27;;;;;;;21.23;20.43;;;21.40;59.10;;;;;;4993005;28;20466;-66
2023/12/11 11:59:05;;;;;;;20.90;20.00;;;21.50;59.50;;;;;;4993052;28;20475;-69
2023/12/11 12:01:34;;;;;;;18.75;18.00;;;21.50;59.80;;;;;;4992155;28;20867;-69
2023/12/11 12:04:01;;;;;;;21.57;20.50;;;21.60;60.20;;;;;;4992289;28;20250;-69
2023/12/11 12:06:28;;;;;;;21.50;20.70;;;21.70;59.90;;;;;;4992884;28;20482;-70
2023/12/11 12:08:55;;;;;;;21.43;20.10;;;21.80;60.00;;;;;;4992843;28;20479;-70
2023/12/11 12:11:22;;;;;;;20.57;19.70;;;21.90;59.80;;;;;;4992756;28;20489;-70
2023/12/11 12:13:48;;;;;;;21.47;20.30;;;21.90;59.50;;;;;;4992438;28;20468;-71
2023/12/11 12:16:28;;;;;;;20.43;19.83;;;21.90;59.20;;;;;;4992758;28;20966;-67
2023/12/11 12:18:56;;;;;;;22.80;21.63;;;21.90;58.90;;;;;;4985906;28;20474;-67
2023/12/11 12:21:23;;;;;;;22.20;21.50;;;22.00;57.80;;;;;;4992635;28;20505;-67
2023/12/11 12:24:01;;;;;;;11.20;10.57;;;22.00;57.80;;;;;;4991928;28;20471;-71
2023/12/11 12:26:28;;;;;;;8.45;8.15;;;22.00;57.20;;;;;;4991830;28;20499;-70
2023/12/11 12:28:55;;;;;;;9.35;8.95;;;21.90;57.40;;;;;;4992085;28;20479;-70
2023/12/11 12:31:22;;;;;;;9.75;9.18;;;22.00;57.60;;;;;;4992173;28;20472;-70